Shunho Maru — JMXQ — position and weather

sailwx.info

Track history (hours):
 
Tides and Currents Weather Stations Pressure Air Temp Water Temp Dewpoint Dewpoint Depression Visibility Wind Speed Wind Dir Waves Ship Positions

Shunho Maru

Last reported at 2018-Jul-17 02:23 UTC. Time now 2018-Jul-18 14:43 UTC.
Position N 34°58' E 139°44'.

Length 69 m; draft 4.4 m.

Type: Tanker. MMSI: 432477000.

Date/timePositionNaut miles runAvg speedWind from/ knotsBaromVisibWave heightAir tempDewpointWater temp
2018-Jul-17 02:23N 34°58' E 139°44'512.1
2018-Jul-17 02:00N 35°02' E 139°44'611.9
2018-Jul-17 01:30N 35°08' E 139°45'611.9
2018-Jul-17 01:00N 35°14' E 139°46'611.9
2018-Jul-17 00:31N 35°19' E 139°43'1110.6
2018-Jul-16 23:29N 35°29' E 139°50'5 9.8
2018-Jul-16 22:59N 35°29' E 139°56'0 0.2
2018-Jul-16 22:30N 35°29' E 139°56'0 0.0
2018-Jul-16 21:55N 35°29' E 139°56'0 0.0
2018-Jul-16 21:25N 35°29' E 139°56'0 0.0
2018-Jul-16 20:55N 35°29' E 139°56'0 0.0
2018-Jul-16 20:25N 35°29' E 139°56'0 0.0
2018-Jul-16 19:58N 35°29' E 139°56'0 0.0
2018-Jul-16 19:25N 35°29' E 139°56'0 0.0
2018-Jul-16 18:55N 35°29' E 139°56'0 0.0
2018-Jul-16 18:25N 35°29' E 139°56'0 0.0
2018-Jul-16 17:55N 35°29' E 139°56'0 0.0
2018-Jul-16 17:25N 35°29' E 139°56'0 0.0
2018-Jul-16 16:58N 35°29' E 139°56'0 0.0
2018-Jul-16 16:28N 35°29' E 139°56'0 0.0
2018-Jul-16 15:55N 35°29' E 139°56'0 0.0
2018-Jul-16 15:25N 35°29' E 139°56'0 0.0
2018-Jul-16 14:49N 35°29' E 139°56'0 0.0
2018-Jul-16 14:25N 35°29' E 139°56'0 0.0
2018-Jul-16 13:55N 35°29' E 139°56'5 0.7
2018-Jul-16 06:00N 35°30' E 140°02'1 2.3
2018-Jul-16 05:24N 35°30' E 140°00'0 0.0
2018-Jul-15 17:36N 35°30' E 140°00'0 0.0
2018-Jul-15 17:09N 35°30' E 140°00'0 0.0
2018-Jul-15 17:00N 35°30' E 140°00'0 0.0
2018-Jul-15 14:45N 35°30' E 140°00'0 0.0
2018-Jul-15 14:24N 35°30' E 140°00'0 0.0
2018-Jul-15 14:00N 35°30' E 140°00'0 0.0
2018-Jul-15 13:30N 35°30' E 140°00'0 0.0
2018-Jul-15 13:00N 35°30' E 140°00'0 0.0
2018-Jul-15 12:00N 35°30' E 140°00'0 0.0
2018-Jul-15 11:30N 35°30' E 140°00'0 0.0
2018-Jul-15 03:57N 35°30' E 140°00'1 0.2
2018-Jul-14 22:15N 35°30' E 139°59'411.2
2018-Jul-14 21:56N 35°30' E 139°55'511.0
2018-Jul-14 21:30N 35°27' E 139°50'611.7
2018-Jul-14 21:00N 35°23' E 139°46'510.7
2018-Jul-14 20:30N 35°17' E 139°45'611.5
2018-Jul-14 20:00N 35°12' E 139°47'611.7
2018-Jul-14 19:30N 35°06' E 139°44'611.8
2018-Jul-14 19:00N 35°02' E 139°39'612.8
2018-Jul-14 18:30N 34°58' E 139°33'  
2018-Jul-11 10:05N 33°53' E 135°01'112.1
2018-Jul-11 10:00N 33°54' E 135°01'612.5
2018-Jul-11 09:29N 34°00' E 135°00'612.3
2018-Jul-11 09:00N 34°06' E 134°60'611.6
2018-Jul-11 08:28N 34°12' E 134°59'511.1
2018-Jul-11 08:01N 34°17' E 134°58'510.9
2018-Jul-11 07:30N 34°23' E 134°60'611.4
2018-Jul-11 07:01N 34°28' E 135°01'611.3
2018-Jul-11 06:30N 34°34' E 135°03'6 9.8
2018-Jul-11 05:50N 34°36' E 134°55'813.7
2018-Jul-11 05:16N 34°40' E 134°47'2 0.1
2018-Jul-10 10:38N 34°41' E 134°45'212.8
2018-Jul-10 10:30N 34°40' E 134°47'713.3
2018-Jul-10 09:59N 34°37' E 134°54'714.9
2018-Jul-10 09:30N 34°37' E 135°03'611.5
2018-Jul-10 09:00N 34°31' E 135°05'713.6
2018-Jul-10 08:31N 34°24' E 135°03'714.1
2018-Jul-10 08:00N 34°18' E 134°60'613.0
2018-Jul-10 07:30N 34°11' E 134°60'712.8
2018-Jul-10 06:59N 34°05' E 135°00'22710.2
2018-Jul-09 08:40N 34°56' E 139°28'310.1
2018-Jul-09 08:23N 34°58' E 139°31'511.4
2018-Jul-09 07:58N 35°02' E 139°35'612.2
2018-Jul-09 07:30N 35°06' E 139°40'612.6
2018-Jul-09 07:00N 35°10' E 139°45'611.8
2018-Jul-09 06:30N 35°16' E 139°45'612.3
2018-Jul-09 06:00N 35°22' E 139°42'611.7
2018-Jul-09 05:30N 35°27' E 139°46'1511.5
2018-Jul-09 04:14N 35°32' E 140°03'2 0.1
2018-Jul-08 07:54N 35°31' E 140°01'0 0.0
2018-Jul-08 07:00N 35°31' E 140°01'0 0.0
2018-Jul-08 05:24N 35°31' E 140°01'1 1.3
2018-Jul-08 04:59N 35°30' E 140°01'1 2.2
2018-Jul-08 04:28N 35°30' E 140°02'2 0.3
2018-Jul-07 23:14N 35°31' E 140°00'5 2.0
2018-Jul-07 20:49N 35°29' E 139°55'0 0.1
2018-Jul-07 20:20N 35°29' E 139°55'4 9.7
2018-Jul-07 19:57N 35°27' E 139°50'512.1
2018-Jul-07 19:30N 35°23' E 139°46'611.3
2018-Jul-07 19:00N 35°18' E 139°45'511.0
2018-Jul-07 18:30N 35°13' E 139°47'612.0
2018-Jul-07 18:01N 35°07' E 139°45'612.3
2018-Jul-07 17:29N 35°02' E 139°40'  
Track history (hours):
 
Tides and Currents Weather Stations Pressure Air Temp Water Temp Dewpoint Dewpoint Depression Visibility Wind Speed Wind Dir Waves Ship Positions

Shunho Maru

Last reported at 2018-Jul-17 02:23 UTC. Time now 2018-Jul-18 14:43 UTC.
Position N 34°58' E 139°44'.

Length 69 m; draft 4.4 m.

Type: Tanker. MMSI: 432477000.

Date/timePositionNaut miles runAvg speedWind from/ knotsBaromVisibWave heightAir tempDewpointWater temp
2018-Jul-17 02:23N 34°58' E 139°44'512.1
2018-Jul-17 02:00N 35°02' E 139°44'611.9
2018-Jul-17 01:30N 35°08' E 139°45'611.9
2018-Jul-17 01:00N 35°14' E 139°46'611.9
2018-Jul-17 00:31N 35°19' E 139°43'1110.6
2018-Jul-16 23:29N 35°29' E 139°50'5 9.8
2018-Jul-16 22:59N 35°29' E 139°56'0 0.2
2018-Jul-16 22:30N 35°29' E 139°56'0 0.0
2018-Jul-16 21:55N 35°29' E 139°56'0 0.0
2018-Jul-16 21:25N 35°29' E 139°56'0 0.0
2018-Jul-16 20:55N 35°29' E 139°56'0 0.0
2018-Jul-16 20:25N 35°29' E 139°56'0 0.0
2018-Jul-16 19:58N 35°29' E 139°56'0 0.0
2018-Jul-16 19:25N 35°29' E 139°56'0 0.0
2018-Jul-16 18:55N 35°29' E 139°56'0 0.0
2018-Jul-16 18:25N 35°29' E 139°56'0 0.0
2018-Jul-16 17:55N 35°29' E 139°56'0 0.0
2018-Jul-16 17:25N 35°29' E 139°56'0 0.0
2018-Jul-16 16:58N 35°29' E 139°56'0 0.0
2018-Jul-16 16:28N 35°29' E 139°56'0 0.0
2018-Jul-16 15:55N 35°29' E 139°56'0 0.0
2018-Jul-16 15:25N 35°29' E 139°56'0 0.0
2018-Jul-16 14:49N 35°29' E 139°56'0 0.0
2018-Jul-16 14:25N 35°29' E 139°56'0 0.0
2018-Jul-16 13:55N 35°29' E 139°56'5 0.7
2018-Jul-16 06:00N 35°30' E 140°02'1 2.3
2018-Jul-16 05:24N 35°30' E 140°00'0 0.0
2018-Jul-15 17:36N 35°30' E 140°00'0 0.0
2018-Jul-15 17:09N 35°30' E 140°00'0 0.0
2018-Jul-15 17:00N 35°30' E 140°00'0 0.0
2018-Jul-15 14:45N 35°30' E 140°00'0 0.0
2018-Jul-15 14:24N 35°30' E 140°00'0 0.0
2018-Jul-15 14:00N 35°30' E 140°00'0 0.0
2018-Jul-15 13:30N 35°30' E 140°00'0 0.0
2018-Jul-15 13:00N 35°30' E 140°00'0 0.0
2018-Jul-15 12:00N 35°30' E 140°00'0 0.0
2018-Jul-15 11:30N 35°30' E 140°00'0 0.0
2018-Jul-15 03:57N 35°30' E 140°00'1 0.2
2018-Jul-14 22:15N 35°30' E 139°59'411.2
2018-Jul-14 21:56N 35°30' E 139°55'511.0
2018-Jul-14 21:30N 35°27' E 139°50'611.7
2018-Jul-14 21:00N 35°23' E 139°46'510.7
2018-Jul-14 20:30N 35°17' E 139°45'611.5
2018-Jul-14 20:00N 35°12' E 139°47'611.7
2018-Jul-14 19:30N 35°06' E 139°44'611.8
2018-Jul-14 19:00N 35°02' E 139°39'612.8
2018-Jul-14 18:30N 34°58' E 139°33'  
2018-Jul-11 10:05N 33°53' E 135°01'112.1
2018-Jul-11 10:00N 33°54' E 135°01'612.5
2018-Jul-11 09:29N 34°00' E 135°00'612.3
2018-Jul-11 09:00N 34°06' E 134°60'611.6
2018-Jul-11 08:28N 34°12' E 134°59'511.1
2018-Jul-11 08:01N 34°17' E 134°58'510.9
2018-Jul-11 07:30N 34°23' E 134°60'611.4
2018-Jul-11 07:01N 34°28' E 135°01'611.3
2018-Jul-11 06:30N 34°34' E 135°03'6 9.8
2018-Jul-11 05:50N 34°36' E 134°55'813.7
2018-Jul-11 05:16N 34°40' E 134°47'2 0.1
2018-Jul-10 10:38N 34°41' E 134°45'212.8
2018-Jul-10 10:30N 34°40' E 134°47'713.3
2018-Jul-10 09:59N 34°37' E 134°54'714.9
2018-Jul-10 09:30N 34°37' E 135°03'611.5
2018-Jul-10 09:00N 34°31' E 135°05'713.6
2018-Jul-10 08:31N 34°24' E 135°03'714.1
2018-Jul-10 08:00N 34°18' E 134°60'613.0
2018-Jul-10 07:30N 34°11' E 134°60'712.8
2018-Jul-10 06:59N 34°05' E 135°00'22710.2
2018-Jul-09 08:40N 34°56' E 139°28'310.1
2018-Jul-09 08:23N 34°58' E 139°31'511.4
2018-Jul-09 07:58N 35°02' E 139°35'612.2
2018-Jul-09 07:30N 35°06' E 139°40'612.6
2018-Jul-09 07:00N 35°10' E 139°45'611.8
2018-Jul-09 06:30N 35°16' E 139°45'612.3
2018-Jul-09 06:00N 35°22' E 139°42'611.7
2018-Jul-09 05:30N 35°27' E 139°46'1511.5
2018-Jul-09 04:14N 35°32' E 140°03'2 0.1
2018-Jul-08 07:54N 35°31' E 140°01'0 0.0
2018-Jul-08 07:00N 35°31' E 140°01'0 0.0
2018-Jul-08 05:24N 35°31' E 140°01'1 1.3
2018-Jul-08 04:59N 35°30' E 140°01'1 2.2
2018-Jul-08 04:28N 35°30' E 140°02'2 0.3
2018-Jul-07 23:14N 35°31' E 140°00'5 2.0
2018-Jul-07 20:49N 35°29' E 139°55'0 0.1
2018-Jul-07 20:20N 35°29' E 139°55'4 9.7
2018-Jul-07 19:57N 35°27' E 139°50'512.1
2018-Jul-07 19:30N 35°23' E 139°46'611.3
2018-Jul-07 19:00N 35°18' E 139°45'511.0
2018-Jul-07 18:30N 35°13' E 139°47'612.0
2018-Jul-07 18:01N 35°07' E 139°45'612.3
2018-Jul-07 17:29N 35°02' E 139°40'  

Dump ship's entire track history